Terminal Aerodrome Forecast
Issued by NWS Jackson, MS

Home | Current Version | Previous Version | Text Only | Print | Product List | Glossary On
Versions: 1 2 3 4 5 6 7 8 9 10 11 12
000
FTUS44 KJAN 011120
TAFGWO
TAF
KGWO 011120Z 0112/0212 10003KT P6SM FEW080 SCT090
     FM011400 VRB05KT P6SM FEW070 SCT150 SCT250=

USA.gov is the U.S. government's official web portal to all federal, state and local government web resources and services.